createdAt,value
2022-10-31T00:01:35.816Z,19.47
2022-10-31T00:04:05.430Z,19.33
2022-10-31T00:06:34.145Z,19.23
2022-10-31T00:09:05.201Z,19.30
2022-10-31T00:11:33.975Z,19.30
2022-10-31T00:14:02.594Z,19.29
2022-10-31T00:16:31.300Z,19.21
2022-10-31T00:19:02.233Z,19.14
2022-10-31T00:21:32.309Z,19.18
2022-10-31T00:24:01.514Z,19.16
2022-10-31T00:26:32.161Z,19.11
2022-10-31T00:29:01.080Z,19.07
2022-10-31T00:31:29.948Z,19.05
2022-10-31T00:33:58.599Z,19.06
2022-10-31T00:36:27.102Z,18.91
2022-10-31T00:38:55.961Z,18.97
2022-10-31T00:41:24.406Z,18.99
2022-10-31T00:43:52.783Z,18.98
2022-10-31T00:46:21.186Z,18.91
2022-10-31T00:48:49.627Z,18.95
2022-10-31T00:51:18.267Z,18.92
2022-10-31T00:53:46.706Z,19.02
2022-10-31T00:56:15.202Z,19.02
2022-10-31T00:58:43.675Z,19.00
2022-10-31T01:01:12.152Z,18.99
2022-10-31T01:03:40.985Z,18.99
2022-10-31T01:06:11.242Z,19.03
2022-10-31T01:08:40.470Z,18.93
2022-10-31T01:11:23.579Z,18.87
2022-10-31T01:13:54.151Z,18.43
2022-10-31T01:16:25.141Z,18.41
2022-10-31T01:18:54.010Z,18.63
2022-10-31T01:23:54.917Z,18.37
2022-10-31T01:26:26.415Z,18.46
2022-10-31T01:29:02.960Z,18.62
2022-10-31T01:31:34.486Z,18.65
2022-10-31T01:34:04.115Z,18.55
2022-10-31T01:36:36.014Z,18.45
2022-10-31T01:39:10.456Z,18.60
2022-10-31T01:41:44.409Z,18.40
2022-10-31T01:44:15.783Z,18.52
2022-10-31T01:46:48.499Z,18.49
2022-10-31T01:49:38.623Z,18.52
2022-10-31T01:52:28.178Z,18.57
2022-10-31T01:54:59.828Z,18.49
2022-10-31T01:57:29.852Z,18.28
2022-10-31T02:00:01.815Z,18.09
2022-10-31T02:02:32.449Z,17.99
2022-10-31T02:05:03.596Z,18.03
2022-10-31T02:07:40.489Z,18.20
2022-10-31T02:10:09.308Z,18.07
2022-10-31T02:12:39.131Z,18.18
2022-10-31T02:15:09.242Z,17.97
2022-10-31T02:17:37.754Z,17.91
2022-10-31T02:20:24.677Z,17.82
2022-10-31T02:23:20.982Z,17.61
2022-10-31T02:26:24.750Z,17.42
2022-10-31T02:29:24.014Z,17.34
2022-10-31T02:32:15.151Z,17.25
2022-10-31T02:34:59.219Z,17.21
2022-10-31T02:37:46.435Z,17.39
2022-10-31T02:40:23.997Z,17.37
2022-10-31T02:43:04.899Z,17.55
2022-10-31T02:45:58.747Z,17.62
2022-10-31T02:48:36.113Z,17.54
2022-10-31T02:51:06.105Z,17.43
2022-10-31T02:53:35.879Z,17.42
2022-10-31T02:56:13.410Z,17.51
2022-10-31T02:59:00.841Z,17.49
2022-10-31T03:01:50.201Z,17.43
2022-10-31T03:04:57.367Z,17.42
2022-10-31T03:08:01.096Z,17.41
2022-10-31T03:10:54.347Z,17.66
2022-10-31T03:16:09.282Z,17.61
2022-10-31T03:18:47.690Z,17.70
2022-10-31T03:21:22.804Z,17.52
2022-10-31T03:23:53.110Z,17.35
2022-10-31T03:26:24.212Z,17.35
2022-10-31T03:29:03.017Z,17.32
2022-10-31T03:31:38.068Z,17.37
2022-10-31T03:34:08.635Z,17.23
2022-10-31T03:36:39.966Z,17.19
2022-10-31T03:39:13.731Z,17.38
2022-10-31T03:42:00.755Z,17.27
2022-10-31T03:44:31.217Z,17.44
2022-10-31T03:47:00.635Z,17.59
2022-10-31T03:49:29.954Z,17.47
2022-10-31T03:52:06.029Z,17.61
2022-10-31T03:54:43.356Z,17.64
2022-10-31T03:57:17.367Z,17.49
2022-10-31T03:59:51.896Z,17.47
2022-10-31T04:02:26.961Z,17.34
2022-10-31T04:04:56.647Z,17.18
2022-10-31T04:07:31.078Z,17.21
2022-10-31T04:10:03.053Z,17.09
2022-10-31T04:12:33.218Z,16.87
2022-10-31T04:15:04.017Z,17.05
2022-10-31T04:17:35.592Z,17.01
2022-10-31T04:20:04.439Z,16.84
2022-10-31T04:22:32.973Z,16.83
2022-10-31T04:25:01.363Z,16.84
2022-10-31T04:27:29.735Z,16.88
2022-10-31T04:29:58.193Z,17.13
2022-10-31T04:32:27.109Z,17.14
2022-10-31T04:34:55.468Z,17.12
2022-10-31T04:37:23.797Z,17.30
2022-10-31T04:39:52.125Z,17.45
2022-10-31T04:42:20.550Z,17.51
2022-10-31T04:44:48.902Z,17.31
2022-10-31T04:47:17.447Z,17.46
2022-10-31T04:49:45.810Z,17.58
2022-10-31T04:52:15.459Z,17.63
2022-10-31T04:54:43.819Z,17.62
2022-10-31T04:57:12.250Z,17.60
2022-10-31T04:59:40.668Z,17.59
2022-10-31T05:02:09.199Z,17.46
2022-10-31T05:04:37.595Z,17.43
2022-10-31T05:07:06.007Z,17.34
2022-10-31T05:09:34.389Z,17.33
2022-10-31T05:12:02.891Z,17.45
2022-10-31T05:14:31.395Z,17.45
2022-10-31T05:16:59.754Z,17.46
2022-10-31T05:19:29.108Z,17.18
2022-10-31T05:21:57.594Z,17.20
2022-10-31T05:24:26.986Z,17.32
2022-10-31T05:26:55.363Z,17.36
2022-10-31T05:29:23.759Z,17.17
2022-10-31T05:31:52.175Z,17.16
2022-10-31T05:34:20.551Z,17.17
2022-10-31T05:36:49.009Z,17.21
2022-10-31T05:39:18.383Z,17.12
2022-10-31T05:41:46.721Z,17.11
2022-10-31T05:44:15.093Z,17.19
2022-10-31T05:46:43.485Z,17.22
2022-10-31T05:49:11.887Z,17.21
2022-10-31T05:51:40.256Z,17.06
2022-10-31T05:54:10.845Z,16.90
2022-10-31T05:56:43.237Z,16.99
2022-10-31T05:59:11.644Z,16.80
2022-10-31T06:01:40.158Z,16.87
2022-10-31T06:04:08.679Z,16.86
2022-10-31T06:06:37.561Z,16.76
2022-10-31T06:09:05.920Z,16.70
2022-10-31T06:11:34.247Z,16.55
2022-10-31T06:14:02.954Z,16.42
2022-10-31T06:16:31.386Z,16.34
2022-10-31T06:18:59.806Z,16.54
2022-10-31T06:21:28.323Z,16.73
2022-10-31T06:23:56.843Z,16.79
2022-10-31T06:26:25.386Z,16.61
2022-10-31T06:28:56.114Z,16.74
2022-10-31T06:31:26.086Z,16.69
2022-10-31T06:33:54.641Z,16.69
2022-10-31T06:36:23.219Z,16.86
2022-10-31T06:38:51.622Z,17.05
2022-10-31T06:41:21.028Z,17.11
2022-10-31T06:43:49.415Z,17.14
2022-10-31T06:46:17.811Z,17.14
2022-10-31T06:48:46.241Z,17.20
2022-10-31T06:51:14.793Z,17.21
2022-10-31T06:53:43.205Z,17.10
2022-10-31T06:56:11.663Z,16.95
2022-10-31T06:58:40.074Z,16.84
2022-10-31T07:01:08.662Z,16.83
2022-10-31T07:03:40.316Z,16.84
2022-10-31T07:06:09.050Z,16.91
2022-10-31T07:08:37.464Z,16.96
2022-10-31T07:11:06.010Z,17.19
2022-10-31T07:13:34.458Z,17.12
2022-10-31T07:16:05.565Z,17.09
2022-10-31T07:18:34.964Z,17.24
2022-10-31T07:21:03.701Z,17.41
2022-10-31T07:23:32.478Z,17.53
2022-10-31T07:26:00.925Z,17.52
2022-10-31T07:28:29.522Z,17.52
2022-10-31T07:30:58.669Z,17.44
2022-10-31T07:33:27.612Z,17.54
2022-10-31T07:35:56.039Z,17.51
2022-10-31T07:38:24.599Z,17.45
2022-10-31T07:40:53.858Z,17.53
2022-10-31T07:43:22.376Z,17.53
2022-10-31T07:45:52.994Z,17.54
2022-10-31T07:48:21.955Z,17.55
2022-10-31T07:50:50.507Z,17.58
2022-10-31T07:53:19.009Z,17.62
2022-10-31T07:55:47.430Z,17.57
2022-10-31T07:58:17.719Z,17.52
2022-10-31T08:00:48.024Z,17.46
2022-10-31T08:03:18.758Z,17.42
2022-10-31T08:05:47.284Z,17.45
2022-10-31T08:08:16.485Z,17.45
2022-10-31T08:10:45.101Z,17.53
2022-10-31T08:13:14.800Z,17.59
2022-10-31T08:15:45.375Z,17.73
2022-10-31T08:18:15.475Z,17.95
2022-10-31T08:20:44.402Z,18.11
2022-10-31T08:23:13.713Z,18.33
2022-10-31T08:25:43.195Z,18.40
2022-10-31T08:28:12.831Z,18.51
2022-10-31T08:30:42.348Z,18.56
2022-10-31T08:33:19.021Z,18.58
2022-10-31T08:35:48.474Z,18.52
2022-10-31T08:38:16.991Z,18.51
2022-10-31T08:40:50.310Z,18.52
2022-10-31T08:43:20.094Z,18.32
2022-10-31T08:45:50.313Z,18.19
2022-10-31T08:48:18.793Z,18.23
2022-10-31T08:50:47.879Z,18.26
2022-10-31T08:53:18.936Z,18.24
2022-10-31T08:55:49.375Z,18.33
2022-10-31T08:58:20.006Z,18.22
2022-10-31T09:00:50.778Z,18.22
2022-10-31T09:03:22.474Z,18.22
2022-10-31T09:05:51.966Z,18.17
2022-10-31T09:08:20.539Z,18.20
2022-10-31T09:10:49.166Z,18.50
2022-10-31T09:13:19.881Z,18.52
2022-10-31T09:15:49.893Z,18.61
2022-10-31T09:18:21.363Z,18.59
2022-10-31T09:20:50.854Z,18.60
2022-10-31T09:23:21.523Z,18.71
2022-10-31T09:25:52.733Z,18.85
2022-10-31T09:28:23.461Z,18.94
2022-10-31T09:30:53.780Z,18.91
2022-10-31T09:33:22.588Z,18.99
2022-10-31T09:35:52.126Z,18.90
2022-10-31T09:38:21.947Z,18.97
2022-10-31T09:41:02.491Z,19.05
2022-10-31T09:43:54.199Z,19.01
2022-10-31T09:46:41.911Z,19.07
2022-10-31T09:49:32.307Z,19.05
2022-10-31T09:52:11.774Z,19.11
2022-10-31T09:54:48.446Z,19.02
2022-10-31T09:57:23.427Z,19.06
2022-10-31T09:59:52.652Z,19.14
2022-10-31T10:02:40.646Z,19.16
2022-10-31T10:05:15.675Z,19.18
2022-10-31T10:08:08.347Z,19.27
2022-10-31T10:11:13.004Z,19.40
2022-10-31T10:13:58.837Z,19.47
2022-10-31T10:16:52.716Z,19.30
2022-10-31T10:19:34.670Z,19.55
2022-10-31T10:22:15.020Z,19.65
2022-10-31T10:24:50.868Z,19.83
2022-10-31T10:27:44.044Z,19.97
2022-10-31T10:30:12.400Z,20.00
2022-10-31T10:32:59.962Z,20.08
2022-10-31T10:35:35.862Z,20.05
2022-10-31T10:38:25.665Z,20.22
2022-10-31T10:40:54.976Z,20.19
2022-10-31T10:43:43.936Z,20.26
2022-10-31T10:46:38.470Z,20.45
2022-10-31T10:49:15.543Z,20.39
2022-10-31T10:54:48.053Z,20.37
2022-10-31T10:57:19.581Z,20.29
2022-10-31T10:59:48.474Z,20.36
2022-10-31T11:02:23.549Z,20.52
2022-10-31T11:04:55.074Z,20.57
2022-10-31T11:07:24.029Z,20.58
2022-10-31T11:10:04.539Z,20.73
2022-10-31T11:12:34.765Z,20.80
2022-10-31T11:15:17.472Z,20.87
2022-10-31T11:17:50.685Z,20.87
2022-10-31T11:20:19.385Z,20.82
2022-10-31T11:22:49.304Z,20.75
2022-10-31T11:25:20.877Z,20.55
2022-10-31T11:28:15.424Z,20.68
2022-10-31T11:30:49.781Z,20.65
2022-10-31T11:33:40.526Z,20.91
2022-10-31T11:36:31.683Z,20.90
2022-10-31T11:39:04.625Z,20.90
2022-10-31T11:41:36.755Z,21.06
2022-10-31T11:44:10.927Z,21.09
2022-10-31T11:46:42.367Z,21.04
2022-10-31T11:49:54.055Z,21.08
2022-10-31T11:52:29.229Z,20.83
2022-10-31T11:55:30.015Z,20.93
2022-10-31T11:57:58.840Z,20.98
2022-10-31T12:00:33.478Z,21.09
2022-10-31T12:03:23.866Z,20.96
2022-10-31T12:06:15.616Z,21.07
2022-10-31T12:08:44.364Z,21.15
2022-10-31T12:11:29.541Z,21.21
2022-10-31T12:14:44.053Z,21.21
2022-10-31T12:17:26.072Z,21.29
2022-10-31T12:20:24.065Z,21.28
2022-10-31T12:23:21.836Z,21.29
2022-10-31T12:26:08.924Z,21.36
2022-10-31T12:29:03.658Z,21.50
2022-10-31T12:32:10.251Z,21.54
2022-10-31T12:34:38.815Z,21.53
2022-10-31T12:37:58.983Z,21.48
2022-10-31T12:41:01.020Z,21.51
2022-10-31T12:43:47.395Z,21.55
2022-10-31T12:46:30.596Z,21.67
2022-10-31T12:49:13.219Z,21.75
2022-10-31T12:51:54.271Z,21.75
2022-10-31T12:54:39.802Z,21.75
2022-10-31T12:57:32.439Z,21.72
2022-10-31T13:00:05.886Z,21.45
2022-10-31T13:02:58.924Z,21.51
2022-10-31T13:05:35.428Z,21.69
2022-10-31T13:08:12.097Z,21.64
2022-10-31T13:10:49.724Z,21.91
2022-10-31T13:13:27.311Z,21.98
2022-10-31T13:16:03.805Z,21.98
2022-10-31T13:18:39.657Z,22.08
2022-10-31T13:21:21.938Z,21.96
2022-10-31T13:23:55.141Z,21.95
2022-10-31T13:26:42.920Z,21.85
2022-10-31T13:29:34.590Z,21.87
2022-10-31T13:32:07.781Z,21.64
2022-10-31T13:34:51.574Z,21.77
2022-10-31T13:37:39.133Z,21.76
2022-10-31T13:40:19.699Z,21.80
2022-10-31T13:43:07.354Z,21.55
2022-10-31T13:45:36.007Z,21.49
2022-10-31T13:48:07.536Z,21.53
2022-10-31T13:50:35.932Z,21.39
2022-10-31T13:53:12.500Z,21.47
2022-10-31T13:55:50.297Z,21.46
2022-10-31T13:58:30.476Z,21.31
2022-10-31T14:01:12.120Z,21.20
2022-10-31T14:04:06.254Z,21.20
2022-10-31T14:06:39.598Z,21.12
2022-10-31T14:09:38.471Z,21.11
2022-10-31T14:12:29.509Z,21.13
2022-10-31T14:15:05.622Z,21.17
2022-10-31T14:18:05.471Z,21.25
2022-10-31T14:20:45.065Z,21.23
2022-10-31T14:23:33.542Z,21.33
2022-10-31T14:26:29.660Z,21.25
2022-10-31T14:29:03.081Z,21.18
2022-10-31T14:31:40.165Z,20.96
2022-10-31T14:34:32.906Z,20.97
2022-10-31T14:37:38.562Z,20.96
2022-10-31T14:40:32.730Z,20.90
2022-10-31T14:43:29.784Z,21.02
2022-10-31T14:46:23.246Z,21.09
2022-10-31T14:49:05.088Z,21.10
2022-10-31T14:51:40.662Z,21.13
2022-10-31T14:54:16.207Z,21.19
2022-10-31T14:56:52.098Z,21.11
2022-10-31T14:59:25.447Z,21.14
2022-10-31T15:02:09.751Z,21.17
2022-10-31T15:04:39.387Z,21.11
2022-10-31T15:07:19.141Z,20.93
2022-10-31T15:10:01.815Z,20.85
2022-10-31T15:12:33.056Z,20.66
2022-10-31T15:15:17.921Z,20.90
2022-10-31T15:17:57.279Z,20.82
2022-10-31T15:20:28.594Z,20.95
2022-10-31T15:22:59.792Z,20.77
2022-10-31T15:25:34.561Z,20.66
2022-10-31T15:28:14.806Z,20.75
2022-10-31T15:30:56.127Z,20.74
2022-10-31T15:33:38.662Z,20.68
2022-10-31T15:36:23.923Z,20.67
2022-10-31T15:38:59.647Z,20.61
2022-10-31T15:41:37.087Z,20.53
2022-10-31T15:44:20.655Z,20.68
2022-10-31T15:46:59.408Z,20.61
2022-10-31T15:49:38.279Z,20.56
2022-10-31T15:52:41.009Z,20.51
2022-10-31T15:55:16.393Z,20.47
2022-10-31T15:57:48.083Z,20.43
2022-10-31T16:00:39.117Z,20.46
2022-10-31T16:03:07.504Z,20.35
2022-10-31T16:05:47.879Z,20.49
2022-10-31T16:08:31.765Z,20.39
2022-10-31T16:11:03.962Z,20.26
2022-10-31T16:13:38.836Z,20.40
2022-10-31T16:19:06.499Z,20.25
2022-10-31T16:21:38.173Z,20.23
2022-10-31T16:24:26.158Z,20.31
2022-10-31T16:26:59.148Z,20.22
2022-10-31T16:29:42.717Z,20.25
2022-10-31T16:32:27.766Z,20.15
2022-10-31T16:35:01.468Z,20.15
2022-10-31T16:37:30.293Z,20.21
2022-10-31T16:39:58.783Z,20.21
2022-10-31T16:42:27.836Z,20.21
2022-10-31T16:44:56.288Z,20.19
2022-10-31T16:47:28.445Z,20.18
2022-10-31T16:50:00.808Z,20.20
2022-10-31T16:52:38.062Z,20.18
2022-10-31T16:55:20.450Z,20.22
2022-10-31T16:57:55.252Z,20.19
2022-10-31T17:00:27.512Z,20.17
2022-10-31T17:02:57.842Z,20.16
2022-10-31T17:05:30.592Z,20.14
2022-10-31T17:08:00.533Z,20.12
2022-10-31T17:10:30.759Z,20.04
2022-10-31T17:13:03.612Z,20.13
2022-10-31T17:15:40.166Z,19.99
2022-10-31T17:18:12.859Z,19.85
2022-10-31T17:20:41.938Z,19.82
2022-10-31T17:23:12.510Z,19.88
2022-10-31T17:25:41.331Z,19.90
2022-10-31T17:28:14.611Z,19.85
2022-10-31T17:30:44.049Z,19.71
2022-10-31T17:33:15.547Z,19.68
2022-10-31T17:35:47.498Z,19.66
2022-10-31T17:38:16.253Z,19.62
2022-10-31T17:40:45.106Z,19.60
2022-10-31T17:43:13.686Z,19.67
2022-10-31T17:45:42.518Z,19.54
2022-10-31T17:48:12.488Z,19.58
2022-10-31T17:50:41.016Z,19.64
2022-10-31T17:53:09.639Z,19.59
2022-10-31T17:55:38.134Z,19.61
2022-10-31T17:58:06.792Z,19.61
2022-10-31T18:00:35.261Z,19.57
2022-10-31T18:03:04.508Z,19.55
2022-10-31T18:05:34.330Z,19.51
2022-10-31T18:08:04.406Z,19.45
2022-10-31T18:10:32.889Z,19.45
2022-10-31T18:13:01.594Z,19.46
2022-10-31T18:15:30.557Z,19.45
2022-10-31T18:18:00.334Z,19.43
2022-10-31T18:20:29.338Z,19.34
2022-10-31T18:22:57.786Z,19.24
2022-10-31T18:25:26.245Z,19.30
2022-10-31T18:27:54.677Z,19.27
2022-10-31T18:30:23.075Z,19.27
2022-10-31T18:32:51.883Z,19.25
2022-10-31T18:35:20.482Z,19.21
2022-10-31T18:37:48.833Z,19.22
2022-10-31T18:40:17.312Z,19.18
2022-10-31T18:42:45.693Z,19.16
2022-10-31T18:45:31.256Z,19.17
2022-10-31T18:48:02.582Z,19.22
2022-10-31T18:50:31.224Z,19.27
2022-10-31T18:52:59.877Z,19.44
2022-10-31T18:55:28.578Z,19.42
2022-10-31T18:57:57.125Z,19.30
2022-10-31T19:00:26.471Z,19.27
2022-10-31T19:02:56.572Z,19.34
2022-10-31T19:05:25.098Z,19.27
2022-10-31T19:07:53.506Z,19.18
2022-10-31T19:10:21.921Z,19.13
2022-10-31T19:12:50.281Z,19.15
2022-10-31T19:15:19.641Z,19.14
2022-10-31T19:17:48.101Z,19.19
2022-10-31T19:20:16.618Z,19.07
2022-10-31T19:22:44.943Z,19.08
2022-10-31T19:25:13.308Z,19.09
2022-10-31T19:27:41.871Z,19.05
2022-10-31T19:30:10.957Z,19.03
2022-10-31T19:32:40.414Z,19.05
2022-10-31T19:35:09.275Z,18.91
2022-10-31T19:37:39.677Z,18.93
2022-10-31T19:40:09.352Z,18.95
2022-10-31T19:42:38.830Z,18.93
2022-10-31T19:45:07.598Z,18.99
2022-10-31T19:47:35.949Z,18.95
2022-10-31T19:50:04.988Z,18.90
2022-10-31T19:52:35.079Z,18.98
2022-10-31T19:55:03.815Z,18.77
2022-10-31T19:58:00.258Z,18.93
2022-10-31T20:00:23.630Z,18.74
2022-10-31T20:02:51.985Z,18.88
2022-10-31T20:05:21.390Z,18.90
2022-10-31T20:07:49.792Z,18.88
2022-10-31T20:10:18.167Z,18.94
2022-10-31T20:12:46.561Z,18.95
2022-10-31T20:15:15.083Z,18.87
2022-10-31T20:17:43.572Z,18.78
2022-10-31T20:20:12.347Z,18.76
2022-10-31T20:22:40.899Z,18.79
2022-10-31T20:25:09.323Z,18.90
2022-10-31T20:27:37.917Z,18.87
2022-10-31T20:30:06.986Z,18.89
2022-10-31T20:32:36.008Z,18.79
2022-10-31T20:35:04.707Z,18.75
2022-10-31T20:37:33.145Z,18.78
2022-10-31T20:40:01.517Z,18.74
2022-10-31T20:42:29.847Z,18.72
2022-10-31T20:44:58.220Z,18.74
2022-10-31T20:47:26.687Z,18.63
2022-10-31T20:49:55.185Z,18.64
2022-10-31T20:52:23.558Z,18.72
2022-10-31T20:54:51.957Z,18.72
2022-10-31T20:57:20.926Z,18.71
2022-10-31T20:59:49.978Z,18.77
2022-10-31T21:02:18.446Z,18.78
2022-10-31T21:04:46.936Z,18.75
2022-10-31T21:07:15.338Z,18.76
2022-10-31T21:09:43.735Z,18.77
2022-10-31T21:12:12.182Z,18.73
2022-10-31T21:14:40.525Z,18.66
2022-10-31T21:17:08.994Z,18.60
2022-10-31T21:19:37.546Z,18.62
2022-10-31T21:22:06.006Z,18.66
2022-10-31T21:24:34.814Z,18.63
2022-10-31T21:27:07.224Z,18.73
2022-10-31T21:29:36.993Z,18.74
2022-10-31T21:32:05.472Z,18.72
2022-10-31T21:34:33.851Z,18.81
2022-10-31T21:37:02.199Z,18.82
2022-10-31T21:39:31.205Z,18.77
2022-10-31T21:41:59.707Z,18.63
2022-10-31T21:44:28.045Z,18.68
2022-10-31T21:46:56.584Z,18.71
2022-10-31T21:49:25.023Z,18.80
2022-10-31T21:51:53.386Z,18.79
2022-10-31T21:54:27.646Z,18.86
2022-10-31T21:56:57.953Z,19.03
2022-10-31T21:59:27.032Z,18.93
2022-10-31T22:02:00.789Z,19.16
2022-10-31T22:04:29.645Z,19.23
2022-10-31T22:06:58.046Z,19.29
2022-10-31T22:09:26.577Z,19.23
2022-10-31T22:11:54.938Z,19.01
2022-10-31T22:14:23.328Z,18.97
2022-10-31T22:16:51.756Z,18.83
2022-10-31T22:19:20.109Z,18.95
2022-10-31T22:21:48.968Z,18.95
2022-10-31T22:24:18.487Z,19.05
2022-10-31T22:26:46.839Z,18.87
2022-10-31T22:29:17.454Z,18.93
2022-10-31T22:31:50.600Z,18.98
2022-10-31T22:34:22.056Z,18.95
2022-10-31T22:36:50.539Z,19.11
2022-10-31T22:39:19.019Z,18.98
2022-10-31T22:41:47.450Z,18.94
2022-10-31T22:44:15.772Z,19.03
2022-10-31T22:46:44.156Z,19.02
2022-10-31T22:49:16.944Z,19.00
2022-10-31T22:51:45.781Z,18.95
2022-10-31T22:54:16.307Z,18.95
2022-10-31T22:56:45.249Z,18.97
2022-10-31T22:59:15.063Z,18.98
2022-10-31T23:01:47.636Z,18.99
2022-10-31T23:04:17.033Z,19.08
2022-10-31T23:06:45.861Z,19.23
2022-10-31T23:09:16.346Z,19.21
2022-10-31T23:11:44.946Z,19.28
2022-10-31T23:14:20.621Z,19.32
2022-10-31T23:16:52.182Z,19.29
2022-10-31T23:19:22.757Z,19.33
2022-10-31T23:21:57.367Z,19.27
2022-10-31T23:24:39.139Z,19.40
2022-10-31T23:27:24.255Z,19.22
2022-10-31T23:29:55.295Z,19.18
2022-10-31T23:32:25.154Z,19.27
2022-10-31T23:34:56.087Z,19.32
2022-10-31T23:37:27.550Z,19.39
2022-10-31T23:39:56.294Z,19.35
2022-10-31T23:42:25.807Z,19.46
2022-10-31T23:44:54.721Z,19.55
2022-10-31T23:47:23.710Z,19.69
2022-10-31T23:49:52.195Z,19.68
2022-10-31T23:52:20.775Z,19.65
2022-10-31T23:54:49.166Z,19.73
2022-10-31T23:57:17.976Z,19.66
2022-10-31T23:59:47.851Z,19.90
